createdAt,value
2023-12-17T00:02:28.480Z,2.43
2023-12-17T00:07:31.975Z,2.90
2023-12-17T00:12:35.399Z,3.26
2023-12-17T00:17:40.662Z,3.47
2023-12-17T00:22:44.504Z,3.43
2023-12-17T00:27:47.988Z,3.12
2023-12-17T00:32:53.476Z,3.46
2023-12-17T00:37:57.152Z,3.23
2023-12-17T00:43:00.837Z,2.94
2023-12-17T00:48:06.016Z,3.23
2023-12-17T00:53:09.790Z,3.35
2023-12-17T00:58:13.398Z,2.77
2023-12-17T01:03:18.557Z,3.29
2023-12-17T01:08:22.178Z,2.72
2023-12-17T01:13:27.697Z,3.19
2023-12-17T01:18:36.806Z,3.19
2023-12-17T01:23:41.001Z,3.09
2023-12-17T01:28:44.549Z,3.06
2023-12-17T01:33:49.596Z,3.02
2023-12-17T01:38:53.244Z,2.73
2023-12-17T01:43:56.867Z,2.94
2023-12-17T01:49:02.147Z,2.21
2023-12-17T01:54:11.754Z,2.64
2023-12-17T01:59:15.393Z,2.68
2023-12-17T02:04:22.522Z,2.95
2023-12-17T02:09:26.225Z,2.66
2023-12-17T02:14:29.714Z,2.72
2023-12-17T02:19:34.707Z,2.65
2023-12-17T02:24:39.906Z,1.06
2023-12-17T02:29:43.458Z,2.70
2023-12-17T02:34:47.025Z,2.66
2023-12-17T02:39:52.003Z,1.96
2023-12-17T02:44:55.514Z,2.14
2023-12-17T02:49:59.126Z,2.31
2023-12-17T02:55:04.177Z,0.85
2023-12-17T03:00:09.087Z,1.03
2023-12-17T03:05:12.657Z,2.47
2023-12-17T03:10:18.264Z,2.29
2023-12-17T03:15:22.098Z,2.42
2023-12-17T03:20:25.774Z,2.41
2023-12-17T03:25:30.836Z,2.09
2023-12-17T03:30:34.615Z,2.43
2023-12-17T03:35:38.293Z,2.41
2023-12-17T03:40:43.309Z,1.89
2023-12-17T03:45:46.757Z,2.02
2023-12-17T03:50:50.433Z,2.45
2023-12-17T03:55:55.392Z,2.46
2023-12-17T04:00:59.500Z,0.82
2023-12-17T04:06:05.149Z,2.44
2023-12-17T04:11:10.285Z,2.46
2023-12-17T04:16:13.777Z,2.18
2023-12-17T04:21:17.547Z,2.41
2023-12-17T04:26:22.607Z,2.42
2023-12-17T04:31:26.159Z,1.86
2023-12-17T04:36:30.019Z,2.08
2023-12-17T04:41:35.525Z,2.42
2023-12-17T04:46:43.726Z,0.91
2023-12-17T04:51:47.245Z,1.99
2023-12-17T04:56:56.135Z,1.95
2023-12-17T05:02:00.403Z,1.42
2023-12-17T05:07:04.037Z,2.42
2023-12-17T05:12:09.454Z,1.30
2023-12-17T05:17:12.956Z,2.43
2023-12-17T05:22:16.599Z,2.41
2023-12-17T05:27:21.569Z,0.68
2023-12-17T05:32:25.077Z,2.35
2023-12-17T05:37:28.625Z,1.86
2023-12-17T05:42:33.493Z,2.33
2023-12-17T05:47:37.130Z,2.29
2023-12-17T05:52:41.999Z,2.29
2023-12-17T05:57:51.011Z,2.29
2023-12-17T06:02:54.527Z,0.81
2023-12-17T06:07:58.041Z,2.24
2023-12-17T06:13:02.961Z,2.22
2023-12-17T06:18:07.460Z,2.18
2023-12-17T06:23:12.372Z,2.16
2023-12-17T06:28:17.389Z,-0.04
2023-12-17T06:33:21.611Z,2.12
2023-12-17T06:38:25.196Z,1.50
2023-12-17T06:43:30.156Z,1.79
2023-12-17T06:48:33.902Z,2.06
2023-12-17T06:53:37.506Z,2.06
2023-12-17T06:58:42.579Z,1.68
2023-12-17T07:03:46.289Z,1.96
2023-12-17T07:08:52.518Z,1.54
2023-12-17T07:13:57.487Z,0.04
2023-12-17T07:19:01.310Z,1.61
2023-12-17T07:24:05.586Z,0.59
2023-12-17T07:29:10.899Z,-1.79
2023-12-17T07:34:16.965Z,2.00
2023-12-17T07:39:22.909Z,2.01
2023-12-17T07:44:30.304Z,2.05
2023-12-17T07:49:34.019Z,2.05
2023-12-17T07:54:40.676Z,2.07
2023-12-17T07:59:45.751Z,1.90
2023-12-17T08:04:50.948Z,2.00
2023-12-17T08:09:54.640Z,1.96
2023-12-17T08:14:59.671Z,2.13
2023-12-17T08:20:03.549Z,1.97
2023-12-17T08:25:07.557Z,2.09
2023-12-17T08:30:13.972Z,1.97
2023-12-17T08:35:17.764Z,2.21
2023-12-17T08:40:21.765Z,0.71
2023-12-17T08:45:26.955Z,2.65
2023-12-17T08:50:30.862Z,2.71
2023-12-17T08:55:34.392Z,2.31
2023-12-17T09:00:39.752Z,2.88
2023-12-17T09:05:44.516Z,1.73
2023-12-17T09:10:48.398Z,3.02
2023-12-17T09:15:53.305Z,3.13
2023-12-17T09:20:57.146Z,3.20
2023-12-17T09:26:01.949Z,2.90
2023-12-17T09:31:10.124Z,2.82
2023-12-17T09:36:13.803Z,2.52
2023-12-17T09:41:17.518Z,3.57
2023-12-17T09:46:22.508Z,3.70
2023-12-17T09:51:26.497Z,3.19
2023-12-17T09:56:30.444Z,3.92
2023-12-17T10:01:36.749Z,3.70
2023-12-17T10:06:40.342Z,3.81
2023-12-17T10:11:44.243Z,3.85
2023-12-17T10:16:50.112Z,4.51
2023-12-17T10:21:53.763Z,4.46
2023-12-17T10:26:57.347Z,4.79
2023-12-17T10:32:02.709Z,4.58
2023-12-17T10:37:06.270Z,5.09
2023-12-17T10:42:10.857Z,5.24
2023-12-17T10:47:17.411Z,5.42
2023-12-17T10:52:22.534Z,5.36
2023-12-17T10:57:28.819Z,4.68
2023-12-17T11:02:34.334Z,5.91
2023-12-17T11:07:38.819Z,4.61
2023-12-17T11:12:42.530Z,6.22
2023-12-17T11:17:49.300Z,6.40
2023-12-17T11:22:54.372Z,6.48
2023-12-17T11:27:57.944Z,6.22
2023-12-17T11:33:04.457Z,6.34
2023-12-17T11:38:08.069Z,6.73
2023-12-17T11:43:11.778Z,6.79
2023-12-17T11:48:22.403Z,6.88
2023-12-17T11:53:27.069Z,6.86
2023-12-17T11:58:30.984Z,5.68
2023-12-17T12:03:36.646Z,6.40
2023-12-17T12:08:42.259Z,6.82
2023-12-17T12:13:48.961Z,6.43
2023-12-17T12:19:04.343Z,6.91
2023-12-17T12:24:11.220Z,7.23
2023-12-17T12:29:14.770Z,7.35
2023-12-17T12:34:19.827Z,7.06
2023-12-17T12:39:23.871Z,7.46
2023-12-17T12:44:27.468Z,7.66
2023-12-17T12:49:32.882Z,7.56
2023-12-17T12:54:39.069Z,7.39
2023-12-17T12:59:44.177Z,7.73
2023-12-17T13:04:50.372Z,7.71
2023-12-17T13:10:01.101Z,7.14
2023-12-17T13:15:12.391Z,8.32
2023-12-17T13:20:18.076Z,8.14
2023-12-17T13:25:22.065Z,8.53
2023-12-17T13:30:27.000Z,8.19
2023-12-17T13:35:32.421Z,8.72
2023-12-17T13:40:37.190Z,8.77
2023-12-17T13:45:41.353Z,7.09
2023-12-17T13:50:49.172Z,6.79
2023-12-17T13:55:54.259Z,8.87
2023-12-17T14:00:58.194Z,7.22
2023-12-17T14:06:03.429Z,8.87
2023-12-17T14:11:13.278Z,8.89
2023-12-17T14:16:23.238Z,7.54
2023-12-17T14:21:30.489Z,8.45
2023-12-17T14:26:34.386Z,8.61
2023-12-17T14:31:38.068Z,8.61
2023-12-17T14:36:42.904Z,7.23
2023-12-17T14:41:46.490Z,8.30
2023-12-17T14:46:50.159Z,8.48
2023-12-17T14:51:55.431Z,8.48
2023-12-17T14:57:00.444Z,8.25
2023-12-17T15:02:04.619Z,7.49
2023-12-17T15:07:12.257Z,5.98
2023-12-17T15:12:16.057Z,8.08
2023-12-17T15:17:19.769Z,8.12
2023-12-17T15:22:24.842Z,8.21
2023-12-17T15:27:29.011Z,8.16
2023-12-17T15:32:32.754Z,7.44
2023-12-17T15:37:37.859Z,8.04
2023-12-17T15:42:41.755Z,7.68
2023-12-17T15:47:45.682Z,6.69
2023-12-17T15:52:50.681Z,7.83
2023-12-17T15:57:54.177Z,7.72
2023-12-17T16:02:58.074Z,7.08
2023-12-17T16:08:04.494Z,7.14
2023-12-17T16:13:08.030Z,7.47
2023-12-17T16:18:11.730Z,5.84
2023-12-17T16:23:16.856Z,6.07
2023-12-17T16:28:21.188Z,7.07
2023-12-17T16:33:24.878Z,7.20
2023-12-17T16:38:30.022Z,6.83
2023-12-17T16:43:33.720Z,6.88
2023-12-17T16:48:37.487Z,6.50
2023-12-17T16:53:42.403Z,6.73
2023-12-17T16:58:46.071Z,6.78
2023-12-17T17:03:49.915Z,6.68
2023-12-17T17:08:54.894Z,6.31
2023-12-17T17:13:58.737Z,6.11
2023-12-17T17:19:02.477Z,6.48
2023-12-17T17:24:07.797Z,6.26
2023-12-17T17:29:11.849Z,6.25
2023-12-17T17:34:15.960Z,6.11
2023-12-17T17:39:22.870Z,5.82
2023-12-17T17:44:26.427Z,6.18
2023-12-17T17:49:30.044Z,6.10
2023-12-17T17:54:35.320Z,4.50
2023-12-17T17:59:38.991Z,5.91
2023-12-17T18:04:42.475Z,5.77
2023-12-17T18:09:47.421Z,5.67
2023-12-17T18:14:51.178Z,4.78
2023-12-17T18:19:54.705Z,5.45
2023-12-17T18:24:59.858Z,4.80
2023-12-17T18:30:03.727Z,2.87
2023-12-17T18:35:08.435Z,2.75
2023-12-17T18:40:15.201Z,5.37
2023-12-17T18:45:18.873Z,5.29
2023-12-17T18:50:22.407Z,4.59
2023-12-17T18:55:30.138Z,5.22
2023-12-17T19:00:34.133Z,4.86
2023-12-17T19:05:39.092Z,3.18
2023-12-17T19:10:45.034Z,4.83
2023-12-17T19:15:48.614Z,3.42
2023-12-17T19:20:52.074Z,3.58
2023-12-17T19:25:57.093Z,3.87
2023-12-17T19:31:00.723Z,3.97
2023-12-17T19:36:04.692Z,4.63
2023-12-17T19:41:10.165Z,4.20
2023-12-17T19:46:14.162Z,4.47
2023-12-17T19:51:18.789Z,4.36
2023-12-17T19:56:23.792Z,2.14
2023-12-17T20:01:27.393Z,3.93
2023-12-17T20:06:31.058Z,3.73
2023-12-17T20:11:35.950Z,4.01
2023-12-17T20:16:39.672Z,4.00
2023-12-17T20:21:43.300Z,4.01
2023-12-17T20:26:48.437Z,4.06
2023-12-17T20:31:53.549Z,3.82
2023-12-17T20:36:57.311Z,4.04
2023-12-17T20:42:02.373Z,3.71
2023-12-17T20:47:12.455Z,4.03
2023-12-17T20:52:16.207Z,4.02
2023-12-17T20:57:21.248Z,4.04
2023-12-17T21:02:24.989Z,3.74
2023-12-17T21:07:28.700Z,4.02
2023-12-17T21:12:33.775Z,4.06
2023-12-17T21:17:37.345Z,3.85
2023-12-17T21:22:41.285Z,4.01
2023-12-17T21:27:46.941Z,4.06
2023-12-17T21:32:50.725Z,3.79
2023-12-17T21:37:54.250Z,3.02
2023-12-17T21:42:59.114Z,3.96
2023-12-17T21:48:02.603Z,3.90
2023-12-17T21:53:06.920Z,3.87
2023-12-17T21:58:14.086Z,3.86
2023-12-17T22:03:17.806Z,3.74
2023-12-17T22:08:21.602Z,3.22
2023-12-17T22:13:26.458Z,2.92
2023-12-17T22:18:30.176Z,3.59
2023-12-17T22:23:33.764Z,3.12
2023-12-17T22:28:39.245Z,3.51
2023-12-17T22:33:42.852Z,3.13
2023-12-17T22:38:46.632Z,3.39
2023-12-17T22:43:51.633Z,3.40
2023-12-17T22:48:56.230Z,3.34
2023-12-17T22:53:59.779Z,3.05
2023-12-17T22:59:04.723Z,3.28
2023-12-17T23:04:08.443Z,3.00
2023-12-17T23:09:12.875Z,1.05
2023-12-17T23:14:17.909Z,2.53
2023-12-17T23:19:21.536Z,1.27
2023-12-17T23:24:25.285Z,2.36
2023-12-17T23:29:30.408Z,3.05
2023-12-17T23:34:33.981Z,2.97
2023-12-17T23:39:37.616Z,1.29
2023-12-17T23:44:45.544Z,2.57
2023-12-17T23:49:49.152Z,1.80
2023-12-17T23:54:52.707Z,2.43
2023-12-17T23:59:57.602Z,2.40
